Time;durP1;ratioP1;P1;durP2;ratioP2;P2;SDS_P1;SDS_P2;PMS_P1;PMS_P2;Temp;Humidity;BMP_temperature;BMP_pressure;BME280_temperature;BME280_humidity;BME280_pressure;Samples;Min_cycle;Max_cycle;Signal;HPM_P1;HPM_P2
2022/12/08 06:28:26;;;;;;;;;;;;;;;3.05;74.99;97449.75;5647474;23;19928;-64
2022/12/08 06:30:51;;;;;;;;;;;;;;;2.82;75.09;97450.03;4853216;29;19920;-65
2022/12/08 06:33:16;;;;;;;;;;;;;;;2.68;75.67;97457.66;4832743;29;19917;-64
2022/12/08 06:35:41;;;;;;;;;;;;;;;2.56;76.41;97457.34;4850614;29;19959;-64
2022/12/08 06:38:06;;;;;;;;;;;;;;;2.46;76.81;97453.50;4834449;29;19943;-64
2022/12/08 06:40:32;;;;;;;;;;;;;;;2.33;77.78;97455.00;4815911;29;19956;-65
2022/12/08 06:42:57;;;;;;;;;;;;;;;2.26;77.76;97454.47;4822214;29;19959;-65
2022/12/08 06:45:22;;;;;;;;;;;;;;;2.24;78.16;97452.88;4816019;29;20424;-65
2022/12/08 06:47:47;;;;;;;;;;;;;;;2.14;78.28;97461.06;4840599;29;20663;-65
2022/12/08 06:50:13;;;;;;;;;;;;;;;2.10;78.41;97458.69;4818947;29;20397;-65
2022/12/08 06:52:39;;;;;;;;;;;;;;;2.05;78.68;97450.28;4816555;29;20509;-64
2022/12/08 06:55:05;;;;;;;;;;;;;;;2.03;78.99;97465.03;4830155;29;19917;-64
2022/12/08 06:57:30;;;;;;;;;;;;;;;2.04;79.14;97470.16;4854851;29;19995;-66
2022/12/08 06:59:55;;;;;;;;;;;;;;;2.07;79.67;97466.59;4822297;29;19973;-64
2022/12/08 07:02:20;;;;;;;;;;;;;;;2.10;80.46;97464.69;4831234;29;19916;-65
2022/12/08 07:04:46;;;;;;;;;;;;;;;2.11;79.76;97471.53;4821248;29;20290;-64
2022/12/08 07:07:11;;;;;;;;;;;;;;;1.98;79.69;97475.59;4822765;29;20026;-65
2022/12/08 07:09:36;;;;;;;;;;;;;;;2.02;80.29;97471.97;4833529;29;19917;-65
2022/12/08 07:12:02;;;;;;;;;;;;;;;2.04;79.88;97470.16;4827737;29;20289;-65
2022/12/08 07:14:27;;;;;;;;;;;;;;;2.10;79.54;97477.63;4847656;29;20420;-65
2022/12/08 07:16:53;;;;;;;;;;;;;;;2.05;79.26;97479.59;4823295;29;20013;-65
2022/12/08 07:19:18;;;;;;;;;;;;;;;2.02;79.27;97477.13;4842423;29;19946;-65
2022/12/08 07:21:43;;;;;;;;;;;;;;;2.03;79.83;97476.25;4821675;29;19917;-65
2022/12/08 07:24:08;;;;;;;;;;;;;;;2.02;79.85;97477.13;4856722;29;19916;-65
2022/12/08 07:26:34;;;;;;;;;;;;;;;2.04;79.90;97483.09;4832545;29;19969;-65
2022/12/08 07:28:59;;;;;;;;;;;;;;;2.03;80.11;97478.84;4826842;29;19932;-65
2022/12/08 07:31:24;;;;;;;;;;;;;;;2.02;79.53;97482.31;4838361;29;20300;-64
2022/12/08 07:33:50;;;;;;;;;;;;;;;2.04;79.99;97475.31;4821780;29;19923;-65
2022/12/08 07:36:15;;;;;;;;;;;;;;;2.06;80.02;97478.66;4823823;29;19916;-65
2022/12/08 07:38:41;;;;;;;;;;;;;;;2.07;79.65;97474.34;4835471;29;19971;-65
2022/12/08 07:41:10;;;;;;;;;;;;;;;2.10;79.91;97475.06;4823930;29;19942;-65
2022/12/08 07:43:35;;;;;;;;;;;;;;;2.09;79.36;97470.75;4846141;29;19981;-65
2022/12/08 07:46:00;;;;;;;;;;;;;;;2.09;79.42;97472.50;4837812;29;19917;-65
2022/12/08 07:48:26;;;;;;;;;;;;;;;2.13;79.35;97469.75;4840233;29;19916;-64
2022/12/08 07:50:58;;;;;;;;;;;;;;;2.15;79.44;97474.81;4837645;29;19973;-65
2022/12/08 07:53:23;;;;;;;;;;;;;;;2.17;79.61;97469.56;4829339;29;20365;-64
2022/12/08 07:55:48;;;;;;;;;;;;;;;2.16;79.15;97473.06;4843005;29;19973;-64
2022/12/08 07:58:13;;;;;;;;;;;;;;;2.13;79.09;97474.03;4838330;29;19916;-66
2022/12/08 08:00:39;;;;;;;;;;;;;;;2.11;79.31;97465.53;4821232;29;19946;-65
2022/12/08 08:03:04;;;;;;;;;;;;;;;2.13;80.02;97466.28;4832960;29;19912;-64
2022/12/08 08:05:30;;;;;;;;;;;;;;;2.16;79.45;97467.91;4832547;29;19916;-64
2022/12/08 08:07:55;;;;;;;;;;;;;;;2.19;79.61;97467.75;4842317;29;19938;-64
2022/12/08 08:10:20;;;;;;;;;;;;;;;2.22;79.66;97467.63;4823437;29;19916;-65
2022/12/08 08:12:46;;;;;;;;;;;;;;;2.24;79.03;97465.81;4823945;29;19913;-65
2022/12/08 08:15:11;;;;;;;;;;;;;;;2.23;79.16;97467.53;4832862;29;20403;-65
2022/12/08 08:17:36;;;;;;;;;;;;;;;2.24;79.46;97465.81;4831126;29;20281;-65
2022/12/08 08:20:08;;;;;;;;;;;;;;;2.24;79.37;97469.22;4837084;29;20315;-64
2022/12/08 08:22:33;;;;;;;;;;;;;;;2.25;79.03;97463.13;4840634;29;19912;-65
2022/12/08 08:24:58;;;;;;;;;;;;;;;2.28;79.46;97464.75;4828060;29;19949;-65
2022/12/08 08:27:24;;;;;;;;;;;;;;;2.33;79.58;97468.78;4833697;29;19921;-64
2022/12/08 08:29:49;;;;;;;;;;;;;;;2.37;79.47;97465.16;4823803;29;19947;-64
2022/12/08 08:32:15;;;;;;;;;;;;;;;2.38;79.17;97473.75;4835859;29;19920;-63
2022/12/08 08:34:40;;;;;;;;;;;;;;;2.42;78.71;97464.09;4844175;29;19923;-63
2022/12/08 08:37:05;;;;;;;;;;;;;;;2.43;79.06;97466.59;4835055;29;19916;-63
2022/12/08 08:39:30;;;;;;;;;;;;;;;2.47;78.75;97473.31;4824404;29;19917;-63
2022/12/08 08:41:56;;;;;;;;;;;;;;;2.50;78.75;97467.97;4835615;29;20022;-63
2022/12/08 08:44:21;;;;;;;;;;;;;;;2.53;78.51;97470.44;4839301;29;19920;-64
2022/12/08 08:46:46;;;;;;;;;;;;;;;2.58;78.64;97473.66;4822280;29;19928;-66
2022/12/08 08:49:11;;;;;;;;;;;;;;;2.65;78.59;97470.75;4834846;29;20413;-64
2022/12/08 08:51:37;;;;;;;;;;;;;;;2.69;78.58;97467.13;4826177;29;20169;-64
2022/12/08 08:54:02;;;;;;;;;;;;;;;2.74;77.87;97468.56;4841622;29;19913;-64
2022/12/08 08:56:27;;;;;;;;;;;;;;;2.79;77.46;97474.34;4825285;29;19948;-65
2022/12/08 08:58:52;;;;;;;;;;;;;;;2.80;77.51;97475.19;4826940;29;19923;-64
2022/12/08 09:01:19;;;;;;;;;;;;;;;2.89;78.67;97479.06;4833580;29;19917;-65
2022/12/08 09:03:45;;;;;;;;;;;;;;;2.92;77.86;97479.75;4838345;29;20374;-65
2022/12/08 09:06:10;;;;;;;;;;;;;;;2.94;76.91;97482.28;4828454;29;19920;-64
2022/12/08 09:08:35;;;;;;;;;;;;;;;2.95;76.94;97478.78;4838202;29;19912;-63
2022/12/08 09:11:00;;;;;;;;;;;;;;;2.97;77.26;97476.97;4821714;29;20385;-66
2022/12/08 09:13:26;;;;;;;;;;;;;;;2.98;76.62;97478.63;4816792;29;20377;-66
2022/12/08 10:48:30;;;;;;;;;;;;;;;4.27;71.51;97376.72;5035564;23;19931;-66
2022/12/08 10:50:56;;;;;;;;;;;;;;;4.40;71.06;97377.66;4864243;29;19924;-66
2022/12/08 10:53:22;;;;;;;;;;;;;;;4.50;70.70;97371.03;4871871;29;20288;-66
2022/12/08 10:55:50;;;;;;;;;;;;;;;4.58;70.31;97367.19;4857249;29;19946;-66
2022/12/08 10:58:25;;;;;;;;;;;;;;;4.64;70.05;97365.03;4859944;29;19916;-66
2022/12/08 11:00:50;;;;;;;;;;;;;;;4.71;70.09;97355.13;4858215;29;20388;-67
2022/12/08 11:03:26;;;;;;;;;;;;;;;4.81;69.82;97356.25;4866683;29;19923;-66
2022/12/08 11:05:54;;;;;;;;;;;;;;;4.92;69.14;97351.28;4864080;29;20368;-66
2022/12/08 11:08:19;;;;;;;;;;;;;;;4.86;68.14;97351.66;4850585;29;20218;-66
2022/12/08 11:10:44;;;;;;;;;;;;;;;4.95;67.77;97348.47;4856237;29;20329;-66
2022/12/08 11:13:20;;;;;;;;;;;;;;;5.01;67.84;97349.88;4857186;29;20357;-66
2022/12/08 11:15:45;;;;;;;;;;;;;;;5.11;67.61;97345.81;4868929;29;20340;-66
2022/12/08 11:18:43;;;;;;;;;;;;;;;5.22;66.78;97335.59;4851875;29;20414;-66
2022/12/08 11:21:17;;;;;;;;;;;;;;;5.24;66.53;97331.16;4854273;29;19916;-65
2022/12/08 11:23:45;;;;;;;;;;;;;;;5.00;66.92;97333.47;4856523;29;20349;-65
2022/12/08 11:26:18;;;;;;;;;;;;;;;5.19;67.30;97333.19;4854764;29;19926;-65
2022/12/08 11:28:44;;;;;;;;;;;;;;;5.39;67.08;97328.53;4834676;29;19916;-66
2022/12/08 11:31:14;;;;;;;;;;;;;;;5.41;67.21;97326.69;4859101;29;19980;-65
2022/12/08 11:33:39;;;;;;;;;;;;;;;5.34;66.28;97326.22;4853350;29;20413;-65
2022/12/08 11:36:04;;;;;;;;;;;;;;;5.12;66.87;97321.47;4861245;29;19994;-65
2022/12/08 11:38:30;;;;;;;;;;;;;;;5.04;66.97;97323.72;4860842;29;20018;-65
2022/12/08 11:41:04;;;;;;;;;;;;;;;4.91;66.70;97318.41;4856344;29;20296;-65
2022/12/08 11:43:32;;;;;;;;;;;;;;;4.90;67.30;97321.94;4856896;29;19985;-65
2022/12/08 11:45:58;;;;;;;;;;;;;;;4.87;67.57;97314.34;4852290;29;19938;-66
2022/12/08 11:48:34;;;;;;;;;;;;;;;4.84;68.16;97322.31;4856757;29;19929;-65
2022/12/08 11:51:01;;;;;;;;;;;;;;;4.83;67.99;97325.00;4852770;29;19912;-65
2022/12/08 11:53:27;;;;;;;;;;;;;;;4.71;67.38;97322.22;4858803;29;19967;-66
2022/12/08 11:55:57;;;;;;;;;;;;;;;4.72;68.32;97323.03;4839521;29;19920;-65
2022/12/08 11:58:26;;;;;;;;;;;;;;;4.72;67.93;97321.28;4859614;29;19915;-65
2022/12/08 12:00:52;;;;;;;;;;;;;;;4.66;67.16;97318.22;4876725;29;19912;-65
2022/12/08 12:03:37;;;;;;;;;;;;;;;4.68;67.34;97317.19;4855543;29;19920;-63
2022/12/08 12:06:13;;;;;;;;;;;;;;;4.57;67.73;97313.53;4852421;29;19915;-65
2022/12/08 12:08:57;;;;;;;;;;;;;;;4.58;68.33;97310.88;4857119;29;19916;-65
2022/12/08 12:14:34;;;;;;;;;;;;;;;4.63;68.18;97300.19;4859408;29;19965;-65
2022/12/08 12:17:02;;;;;;;;;;;;;;;4.51;68.03;97300.00;4859820;29;19916;-65
2022/12/08 12:19:29;;;;;;;;;;;;;;;4.57;67.76;97304.00;4858089;29;20333;-66
2022/12/08 12:21:55;;;;;;;;;;;;;;;4.56;68.17;97301.50;4868453;29;19912;-66
2022/12/08 12:24:23;;;;;;;;;;;;;;;4.52;67.92;97301.66;4861045;29;19927;-67
2022/12/08 12:26:59;;;;;;;;;;;;;;;4.39;68.43;97299.88;4849812;29;20008;-65
2022/12/08 12:29:25;;;;;;;;;;;;;;;4.32;69.48;97311.53;4865358;29;19916;-65
2022/12/08 12:31:57;;;;;;;;;;;;;;;4.21;70.16;97307.81;4855634;29;19980;-65
2022/12/08 12:34:29;;;;;;;;;;;;;;;4.16;69.79;97308.97;4849908;29;19916;-65
2022/12/08 12:37:13;;;;;;;;;;;;;;;4.08;70.28;97306.00;4854910;29;19922;-66
2022/12/08 12:39:44;;;;;;;;;;;;;;;4.09;69.80;97297.28;4854684;29;19920;-65
2022/12/08 12:42:11;;;;;;;;;;;;;;;4.09;69.87;97305.06;4851221;29;19953;-64
2022/12/08 12:44:37;;;;;;;;;;;;;;;4.07;70.32;97294.78;4871741;29;20003;-66
2022/12/08 12:47:03;;;;;;;;;;;;;;;4.08;70.00;97300.81;4852423;29;19999;-67
2022/12/08 12:49:37;;;;;;;;;;;;;;;4.10;70.60;97301.56;4856305;29;20427;-67
2022/12/08 12:52:23;;;;;;;;;;;;;;;4.10;70.38;97305.00;4850096;29;19922;-66
2022/12/08 12:54:48;;;;;;;;;;;;;;;4.12;70.43;97300.53;4850966;29;19915;-66
2022/12/08 12:57:16;;;;;;;;;;;;;;;4.11;69.90;97303.22;4854072;29;19972;-66
2022/12/08 12:59:43;;;;;;;;;;;;;;;4.17;69.95;97300.28;4861259;29;19919;-66
2022/12/08 13:02:20;;;;;;;;;;;;;;;4.36;71.89;97289.66;4854840;29;19916;-66
2022/12/08 13:04:51;;;;;;;;;;;;;;;4.47;72.08;97293.31;4861100;29;19915;-65
2022/12/08 13:07:33;;;;;;;;;;;;;;;4.44;69.58;97290.91;4853921;29;19948;-65
2022/12/08 13:09:59;;;;;;;;;;;;;;;4.42;68.74;97290.16;4858586;29;20299;-64
2022/12/08 13:12:27;;;;;;;;;;;;;;;4.36;69.34;97287.91;4860090;29;20012;-66
2022/12/08 13:14:52;;;;;;;;;;;;;;;4.32;69.56;97299.38;4857510;29;19916;-65
2022/12/08 13:17:27;;;;;;;;;;;;;;;4.24;69.56;97288.63;4856561;29;19972;-64
2022/12/08 13:19:53;;;;;;;;;;;;;;;4.17;69.33;97279.53;4859072;29;19922;-65
2022/12/08 13:22:37;;;;;;;;;;;;;;;4.12;69.43;97276.34;4844456;29;19919;-65
2022/12/08 13:25:21;;;;;;;;;;;;;;;4.04;68.77;97280.22;4855277;29;19916;-66
2022/12/08 13:27:52;;;;;;;;;;;;;;;3.99;68.97;97271.88;4860888;29;20011;-66
2022/12/08 13:30:36;;;;;;;;;;;;;;;3.92;69.36;97265.34;4859141;29;19916;-66
2022/12/08 13:33:02;;;;;;;;;;;;;;;3.86;69.75;97273.47;4853920;29;19915;-65
2022/12/08 13:35:27;;;;;;;;;;;;;;;3.85;69.97;97269.19;4855769;29;19916;-66
2022/12/08 13:37:52;;;;;;;;;;;;;;;3.79;70.17;97265.22;4859066;29;20003;-66
2022/12/08 13:40:19;;;;;;;;;;;;;;;3.77;70.61;97266.22;4856511;29;19916;-65
2022/12/08 13:42:46;;;;;;;;;;;;;;;3.77;70.99;97267.03;4853430;29;19916;-64
2022/12/08 13:45:11;;;;;;;;;;;;;;;3.73;70.28;97264.72;4868386;29;20044;-65
2022/12/08 13:47:37;;;;;;;;;;;;;;;3.73;70.81;97262.94;4854436;29;20011;-65
2022/12/08 13:50:10;;;;;;;;;;;;;;;3.74;70.76;97274.16;4845492;29;19934;-65
2022/12/08 13:52:37;;;;;;;;;;;;;;;3.77;71.42;97271.38;4854798;29;19920;-65
2022/12/08 13:55:02;;;;;;;;;;;;;;;3.74;70.71;97272.38;4842369;29;20003;-64
2022/12/08 13:57:29;;;;;;;;;;;;;;;3.75;70.88;97276.69;4856712;29;20358;-65
2022/12/08 13:59:55;;;;;;;;;;;;;;;3.78;69.80;97273.06;4858902;29;19916;-66
2022/12/08 14:02:21;;;;;;;;;;;;;;;3.67;70.91;97272.81;4846942;29;19924;-67
2022/12/08 14:04:46;;;;;;;;;;;;;;;3.60;70.57;97279.28;4858727;29;19938;-65
2022/12/08 14:07:11;;;;;;;;;;;;;;;3.56;71.83;97274.25;4855991;29;19969;-65
2022/12/08 14:09:36;;;;;;;;;;;;;;;3.57;71.54;97270.72;4858325;29;19916;-64
2022/12/08 14:12:16;;;;;;;;;;;;;;;3.51;72.50;97281.47;4860845;29;20262;-65
2022/12/08 14:14:41;;;;;;;;;;;;;;;3.52;72.30;97277.94;4872904;29;19927;-65
2022/12/08 14:17:10;;;;;;;;;;;;;;;3.55;71.43;97266.56;4860685;29;19912;-64
2022/12/08 14:19:36;;;;;;;;;;;;;;;3.56;71.38;97269.06;4861526;29;20372;-65
2022/12/08 14:22:07;;;;;;;;;;;;;;;3.52;71.94;97275.34;4858871;29;20423;-66
2022/12/08 14:24:32;;;;;;;;;;;;;;;3.49;72.11;97278.09;4858757;29;20338;-64
2022/12/08 14:27:01;;;;;;;;;;;;;;;3.48;72.06;97281.63;4861783;29;19916;-64
2022/12/08 14:29:36;;;;;;;;;;;;;;;3.49;71.78;97277.28;4859086;29;19925;-65
2022/12/08 14:32:01;;;;;;;;;;;;;;;3.48;71.79;97273.03;4873975;29;19916;-65
2022/12/08 14:34:26;;;;;;;;;;;;;;;3.45;71.32;97271.41;4854431;29;20295;-65
2022/12/08 14:36:52;;;;;;;;;;;;;;;3.47;72.13;97271.31;4874559;29;20292;-65
2022/12/08 14:39:17;;;;;;;;;;;;;;;3.46;71.54;97262.72;4858047;29;20300;-65
2022/12/08 14:41:56;;;;;;;;;;;;;;;3.48;72.45;97260.88;4858113;29;20003;-65
2022/12/08 14:44:21;;;;;;;;;;;;;;;3.50;72.22;97259.03;4856508;29;19920;-65
2022/12/08 14:47:22;;;;;;;;;;;;;;;3.50;71.85;97256.44;4850134;29;19980;-64
2022/12/08 14:49:47;;;;;;;;;;;;;;;3.51;72.02;97259.84;4867668;29;19916;-66
2022/12/08 14:52:13;;;;;;;;;;;;;;;3.52;72.00;97259.78;4857364;29;20447;-65
2022/12/08 14:54:38;;;;;;;;;;;;;;;3.50;71.62;97256.44;4839961;29;19916;-64
2022/12/08 14:57:03;;;;;;;;;;;;;;;3.51;71.66;97254.69;4841164;29;19927;-64
2022/12/08 14:59:32;;;;;;;;;;;;;;;3.51;71.07;97259.84;4852358;29;19932;-66
2022/12/08 15:02:24;;;;;;;;;;;;;;;3.50;70.59;97264.22;4834007;29;19979;-66
2022/12/08 15:04:55;;;;;;;;;;;;;;;3.51;70.44;97268.50;4854490;29;19912;-66
2022/12/08 15:07:21;;;;;;;;;;;;;;;3.51;71.32;97265.03;4840143;29;20431;-65
2022/12/08 15:09:47;;;;;;;;;;;;;;;3.51;70.65;97270.22;4839123;29;19916;-65
2022/12/08 15:12:12;;;;;;;;;;;;;;;3.50;70.45;97278.94;4841967;29;19908;-67
2022/12/08 15:14:41;;;;;;;;;;;;;;;3.51;71.27;97280.59;4855858;29;20404;-64
2022/12/08 15:17:27;;;;;;;;;;;;;;;3.48;71.04;97279.03;4847376;29;20022;-65
2022/12/08 15:19:55;;;;;;;;;;;;;;;3.48;70.64;97281.63;4858883;29;20356;-66
2022/12/08 15:22:21;;;;;;;;;;;;;;;3.45;70.14;97268.84;4856345;29;20401;-65
2022/12/08 15:24:46;;;;;;;;;;;;;;;3.45;70.53;97266.25;4859939;29;20003;-64
2022/12/08 15:27:15;;;;;;;;;;;;;;;3.44;70.96;97272.34;4861033;29;20324;-65
2022/12/08 15:29:40;;;;;;;;;;;;;;;3.44;70.66;97272.34;4877236;29;19923;-63
2022/12/08 15:32:07;;;;;;;;;;;;;;;3.45;71.05;97268.00;4856253;29;19916;-63
2022/12/08 15:34:32;;;;;;;;;;;;;;;3.44;70.83;97274.94;4847213;29;19940;-65
2022/12/08 15:36:58;;;;;;;;;;;;;;;3.45;70.24;97275.78;4862004;29;20288;-63
2022/12/08 15:39:23;;;;;;;;;;;;;;;3.44;70.13;97258.53;4862994;29;19967;-65
2022/12/08 15:41:48;;;;;;;;;;;;;;;3.43;70.38;97273.25;4863407;29;19959;-64
2022/12/08 15:44:13;;;;;;;;;;;;;;;3.41;70.66;97269.91;4860433;29;19971;-65
2022/12/08 15:46:38;;;;;;;;;;;;;;;3.40;70.76;97270.81;4857808;29;19920;-64
2022/12/08 15:49:04;;;;;;;;;;;;;;;3.41;70.97;97264.75;4861343;29;19916;-65
2022/12/08 15:51:35;;;;;;;;;;;;;;;3.40;70.44;97263.03;4856106;29;19939;-65
2022/12/08 15:54:00;;;;;;;;;;;;;;;3.36;71.14;97268.50;4859516;29;19923;-65
2022/12/08 15:56:25;;;;;;;;;;;;;;;3.36;70.98;97271.91;4860727;29;19915;-66
2022/12/08 15:58:50;;;;;;;;;;;;;;;3.36;70.79;97266.72;4876308;29;19920;-66
2022/12/08 16:01:16;;;;;;;;;;;;;;;3.37;70.79;97267.56;4861679;29;19920;-63
2022/12/08 16:03:41;;;;;;;;;;;;;;;3.34;71.13;97273.78;4861745;29;19916;-64
2022/12/08 16:06:07;;;;;;;;;;;;;;;3.34;71.38;97268.59;4857132;29;20011;-65
2022/12/08 16:08:33;;;;;;;;;;;;;;;3.36;71.57;97277.09;4875550;29;19923;-66
2022/12/08 16:13:51;;;;;;;;;;;;;;;3.34;71.99;97266.00;4859937;29;19971;-65
2022/12/08 16:16:20;;;;;;;;;;;;;;;3.34;72.17;97263.41;4860593;29;19923;-65
2022/12/08 16:18:46;;;;;;;;;;;;;;;3.34;72.48;97263.41;4856341;29;19916;-65
2022/12/08 16:21:12;;;;;;;;;;;;;;;3.35;71.88;97259.88;4859068;29;20044;-65
2022/12/08 16:23:37;;;;;;;;;;;;;;;3.32;71.86;97266.06;4876158;29;19916;-65
2022/12/08 16:26:02;;;;;;;;;;;;;;;3.31;71.43;97266.16;4854116;29;19968;-65
2022/12/08 16:28:27;;;;;;;;;;;;;;;3.31;71.95;97263.56;4860120;29;19920;-65
2022/12/08 16:30:52;;;;;;;;;;;;;;;3.30;71.59;97257.56;4860810;29;19920;-65
2022/12/08 16:33:18;;;;;;;;;;;;;;;3.32;72.30;97263.47;4861419;29;19928;-63
2022/12/08 16:35:43;;;;;;;;;;;;;;;3.33;72.00;97266.91;4858540;29;19916;-66
2022/12/08 16:38:10;;;;;;;;;;;;;;;3.33;71.73;97265.13;4860841;29;19965;-66
2022/12/08 16:42:38;;;;;;;;;;;;;;;3.31;71.91;97260.97;4857540;29;19931;-67
2022/12/08 16:43:21;;;;;;;;;;;;;;;3.33;72.17;97259.13;4861052;29;19952;-67
2022/12/08 16:45:46;;;;;;;;;;;;;;;3.31;72.32;97259.22;4858297;29;19956;-66
2022/12/08 16:48:12;;;;;;;;;;;;;;;3.31;72.38;97269.59;4855189;29;19927;-67
2022/12/08 16:50:37;;;;;;;;;;;;;;;3.31;72.35;97260.97;4860093;29;19912;-67
2022/12/08 16:53:03;;;;;;;;;;;;;;;3.31;72.55;97258.38;4859456;29;19915;-66
2022/12/08 16:55:29;;;;;;;;;;;;;;;3.31;72.76;97258.38;4857865;29;20373;-66
2022/12/08 16:57:54;;;;;;;;;;;;;;;3.28;72.65;97259.38;4858423;29;19945;-66
2022/12/08 17:00:20;;;;;;;;;;;;;;;3.27;72.68;97260.31;4858532;29;19920;-66
2022/12/08 17:02:45;;;;;;;;;;;;;;;3.27;72.36;97259.47;4860412;29;19912;-67
2022/12/08 17:05:13;;;;;;;;;;;;;;;3.26;72.26;97255.19;4859086;29;20419;-66
2022/12/08 17:07:38;;;;;;;;;;;;;;;3.26;72.28;97263.78;4858943;29;19927;-67
2022/12/08 17:10:04;;;;;;;;;;;;;;;3.25;71.77;97264.72;4859030;29;19920;-67
2022/12/08 17:12:30;;;;;;;;;;;;;;;3.25;71.56;97264.72;4858233;29;19916;-67
2022/12/08 17:14:55;;;;;;;;;;;;;;;3.25;71.32;97263.88;4860769;29;19916;-67
2022/12/08 17:17:20;;;;;;;;;;;;;;;3.25;72.15;97261.31;4860908;29;19964;-66
2022/12/08 17:19:45;;;;;;;;;;;;;;;3.25;71.63;97261.31;4873513;29;19916;-64
2022/12/08 17:22:10;;;;;;;;;;;;;;;3.25;72.77;97259.53;4856901;29;20040;-65
2022/12/08 17:24:36;;;;;;;;;;;;;;;3.25;72.36;97253.53;4860614;29;19999;-65
2022/12/08 17:27:05;;;;;;;;;;;;;;;3.26;72.04;97255.19;4856634;29;20003;-65
2022/12/08 17:29:30;;;;;;;;;;;;;;;3.24;71.48;97257.03;4855378;29;20338;-65
2022/12/08 17:31:56;;;;;;;;;;;;;;;3.24;71.31;97251.88;4858234;29;20373;-66
2022/12/08 17:34:21;;;;;;;;;;;;;;;3.24;71.71;97246.69;4860441;29;19998;-65
2022/12/08 17:36:46;;;;;;;;;;;;;;;3.23;71.09;97252.75;4859676;29;19916;-65
2022/12/08 17:39:12;;;;;;;;;;;;;;;3.22;71.89;97256.28;4859662;29;19935;-64
2022/12/08 17:41:38;;;;;;;;;;;;;;;3.22;71.53;97251.09;4852145;29;19916;-65
2022/12/08 17:44:08;;;;;;;;;;;;;;;3.19;72.36;97253.84;4860158;29;19918;-65
2022/12/08 17:46:33;;;;;;;;;;;;;;;3.19;72.66;97257.28;4848661;29;19920;-64
2022/12/08 17:48:58;;;;;;;;;;;;;;;3.17;73.39;97261.72;4841981;29;19912;-65
2022/12/08 17:51:23;;;;;;;;;;;;;;;3.14;73.64;97258.47;4851460;29;19916;-65
2022/12/08 17:53:48;;;;;;;;;;;;;;;3.12;74.42;97262.88;4859321;29;19994;-65
2022/12/08 17:56:15;;;;;;;;;;;;;;;3.11;74.21;97262.03;4859543;29;19963;-65
2022/12/08 17:58:40;;;;;;;;;;;;;;;3.11;74.65;97264.63;4859013;29;20293;-65
2022/12/08 18:01:06;;;;;;;;;;;;;;;3.08;74.15;97260.44;4858721;29;20416;-65
2022/12/08 18:03:31;;;;;;;;;;;;;;;3.09;73.88;97264.69;4853028;29;19974;-64
2022/12/08 18:05:56;;;;;;;;;;;;;;;3.10;74.25;97265.56;4859300;29;19912;-65
2022/12/08 18:08:22;;;;;;;;;;;;;;;3.09;73.91;97264.69;4870640;29;19923;-64
2022/12/08 18:10:47;;;;;;;;;;;;;;;3.06;74.02;97270.06;4858299;29;19919;-64
2022/12/08 18:13:12;;;;;;;;;;;;;;;3.07;73.80;97266.56;4854187;29;19920;-64
2022/12/08 18:15:37;;;;;;;;;;;;;;;3.06;74.25;97264.03;4855999;29;19923;-64
2022/12/08 18:18:02;;;;;;;;;;;;;;;3.08;74.45;97267.38;4855219;29;19916;-64
2022/12/08 18:20:28;;;;;;;;;;;;;;;3.03;73.88;97261.63;4858625;29;19919;-64
2022/12/08 18:22:53;;;;;;;;;;;;;;;3.02;74.13;97262.53;4853442;29;19920;-65
2022/12/08 18:25:18;;;;;;;;;;;;;;;2.98;74.39;97261.84;4852455;29;20002;-65
2022/12/08 18:27:43;;;;;;;;;;;;;;;3.00;74.47;97264.38;4852520;29;19928;-64
2022/12/08 18:30:13;;;;;;;;;;;;;;;2.99;74.73;97258.34;4859828;29;19912;-66
2022/12/08 18:32:38;;;;;;;;;;;;;;;2.99;74.95;97258.34;4858373;29;19980;-64
2022/12/08 18:35:04;;;;;;;;;;;;;;;2.97;74.82;97254.19;4857509;29;20384;-64
2022/12/08 18:37:29;;;;;;;;;;;;;;;2.98;74.55;97255.84;4847203;29;20022;-64
2022/12/08 18:39:54;;;;;;;;;;;;;;;2.98;74.48;97255.84;4858785;29;19923;-64
2022/12/08 18:42:22;;;;;;;;;;;;;;;2.97;74.94;97244.66;4853435;29;19915;-65
2022/12/08 18:44:50;;;;;;;;;;;;;;;2.99;75.17;97247.97;4858653;29;20312;-66
2022/12/08 18:47:16;;;;;;;;;;;;;;;2.97;75.46;97249.81;4854253;29;19920;-65
2022/12/08 18:49:41;;;;;;;;;;;;;;;3.01;75.54;97248.75;4853576;29;19927;-65
2022/12/08 18:52:06;;;;;;;;;;;;;;;2.98;74.66;97235.94;4849408;29;20002;-65
2022/12/08 18:54:32;;;;;;;;;;;;;;;2.99;74.98;97235.03;4861163;29;20249;-64
2022/12/08 18:56:57;;;;;;;;;;;;;;;3.00;74.69;97233.28;4858868;29;20002;-64
2022/12/08 18:59:22;;;;;;;;;;;;;;;2.99;74.72;97236.78;4860032;29;19916;-63
2022/12/08 19:01:47;;;;;;;;;;;;;;;2.99;74.94;97247.13;4863182;29;19935;-64
2022/12/08 19:04:12;;;;;;;;;;;;;;;2.97;74.01;97236.88;4847592;29;19916;-65
2022/12/08 19:06:38;;;;;;;;;;;;;;;2.96;74.30;97242.97;4855108;29;19920;-63
2022/12/08 19:09:04;;;;;;;;;;;;;;;2.93;74.84;97243.13;4855538;29;19943;-64
2022/12/08 19:11:29;;;;;;;;;;;;;;;2.95;75.88;97237.88;4861485;29;19965;-64
2022/12/08 19:13:54;;;;;;;;;;;;;;;2.98;75.32;97235.94;4860616;29;19915;-64
2022/12/08 19:16:20;;;;;;;;;;;;;;;2.97;75.07;97239.47;4858633;29;19916;-64
2022/12/08 19:18:45;;;;;;;;;;;;;;;3.01;75.41;97246.16;4871430;29;19916;-68
2022/12/08 19:21:11;;;;;;;;;;;;;;;3.03;75.82;97252.09;4862472;29;19920;-66
2022/12/08 19:23:36;;;;;;;;;;;;;;;3.02;75.00;97246.97;4862648;29;20048;-66
2022/12/08 19:26:02;;;;;;;;;;;;;;;3.07;76.79;97245.81;4875451;29;20036;-65
2022/12/08 19:28:27;;;;;;;;;;;;;;;3.17;77.92;97255.72;4859195;29;19920;-64
2022/12/08 19:30:53;;;;;;;;;;;;;;;3.23;78.08;97251.00;4859429;29;19927;-64
2022/12/08 19:33:18;;;;;;;;;;;;;;;3.30;78.37;97246.31;4858232;29;19923;-64
2022/12/08 19:35:43;;;;;;;;;;;;;;;3.30;76.78;97247.19;4861195;29;19916;-63
2022/12/08 19:38:08;;;;;;;;;;;;;;;3.30;76.89;97251.50;4862629;29;19919;-64
2022/12/08 19:46:02;;;;;;;;;;;;;;;3.45;79.72;97240.31;4856676;29;20003;-64
2022/12/08 19:48:28;;;;;;;;;;;;;;;3.50;79.20;97238.28;4859275;29;20039;-65
2022/12/08 19:50:53;;;;;;;;;;;;;;;3.56;78.85;97239.72;4858754;29;19955;-64
2022/12/08 19:53:19;;;;;;;;;;;;;;;3.60;78.61;97240.38;4855913;29;19988;-65
2022/12/08 19:55:45;;;;;;;;;;;;;;;3.67;78.41;97239.13;4857843;29;19917;-65
2022/12/08 19:58:10;;;;;;;;;;;;;;;3.70;77.80;97233.75;4862156;29;20405;-65
2022/12/08 20:00:36;;;;;;;;;;;;;;;3.73;77.65;97238.78;4858320;29;19958;-65
2022/12/08 20:03:02;;;;;;;;;;;;;;;3.74;77.54;97233.47;4857932;29;19959;-65
2022/12/08 20:05:27;;;;;;;;;;;;;;;3.77;77.66;97235.91;4862213;29;19947;-65
2022/12/08 20:07:54;;;;;;;;;;;;;;;3.81;77.66;97233.97;4857787;29;19916;-65
2022/12/08 20:10:29;;;;;;;;;;;;;;;3.84;77.50;97230.38;4861132;29;19916;-65
2022/12/08 20:13:39;;;;;;;;;;;;;;;3.88;77.59;97237.06;4857617;29;19916;-65
2022/12/08 20:15:40;;;;;;;;;;;;;;;3.92;77.68;97234.22;4857125;29;19984;-65
2022/12/08 20:18:05;;;;;;;;;;;;;;;3.95;77.52;97239.22;4861826;29;20027;-65
2022/12/08 20:20:30;;;;;;;;;;;;;;;3.98;77.62;97239.03;4860190;29;19916;-65
2022/12/08 20:22:55;;;;;;;;;;;;;;;4.00;77.19;97237.19;4856561;29;20488;-67
2022/12/08 20:25:21;;;;;;;;;;;;;;;4.00;76.69;97232.00;4861141;29;20440;-65
2022/12/08 20:27:46;;;;;;;;;;;;;;;4.01;76.99;97228.47;4861657;29;20502;-65
2022/12/08 20:30:11;;;;;;;;;;;;;;;4.02;76.95;97224.97;4859074;29;20384;-65
2022/12/08 20:32:36;;;;;;;;;;;;;;;4.03;76.80;97226.66;4860528;29;20340;-65
2022/12/08 20:35:02;;;;;;;;;;;;;;;4.05;76.64;97227.38;4852661;29;20485;-65
2022/12/08 20:37:27;;;;;;;;;;;;;;;4.05;76.44;97229.97;4859933;29;20436;-65
2022/12/08 20:39:52;;;;;;;;;;;;;;;4.04;76.21;97230.06;4861719;29;19915;-64
2022/12/08 20:42:18;;;;;;;;;;;;;;;4.03;76.29;97231.00;4858180;29;19919;-65
